Northwest Alabama Regional Airport Muscle Shoals US
ICAO: KMSL
IATA: MSL
Category: Medium
Scheduled Services: Yes

Elevation: 551 ft
TransAlt. 18000 ft.

Airport Communications:
ASOS:119.425
MEMPHIS CNTR:120.8
ANNISTON RDO:122.2
CTAF/UNICOM:123.05

KMSL Zoom In..

Runways:

(A) RW 11 length 6694 ft width 150 ft
---- / hdg 114

(B) RW 18 length 4000 ft width 100 ft
---- / hdg 181

(C) RW 29 length 6694 ft width 150 ft
ILS 109.70 / hdg 294

(D) RW 36 length 4000 ft width 100 ft
---- / hdg 1

Location; KMSL
Day. 19 / Time. 20.53 Zulu
* Altimeter: 30.26
* Temperature: 14° c. 57.2°f.
* Wind from: 020° Speed 07 kn.
Dewpoint: -02° c.
Visibility: 10 Statute Miles.
Clouds: Clear (automated report).

KMSL 192053Z AUTO 02007KT 10SM CLR 14/M02 A3026 RMK AO2 SLP245 T01441017 58007


Wind From 020°
Speed 07 kn.

  YouTube Music Video
 
jpsmedia.com for Web Design  worldairports.se 2018   terms of use